This demonstration page uses our WeatherBlox Daily Observations layout. Learn more.

Hourly Observations for July 21, 2017

Temp ( °F °C ) Dew Point ( °F °C ) Humidity (%) Winds ( mph kmh ) Pressure ( in mb ) Visibility ( mi km ) Precip ( " mm )
12:54 am 00:54 Clear 82 27.8 69 20.6 65 65 S 10 17 29.84 1011 10 16.0934 0 0
1:54 am 01:54 Clear 83 28.3 68 20 61 61 S 12 19 29.84 1010 10 16.0934 0 0
2:54 am 02:54 Clear 83 28.3 68 20 61 61 S 13 20 29.84 1011 10 16.0934 0 0
3:54 am 03:54 Clear 81 27.2 68 20 65 65 S 13 20 29.81 1010 10 16.0934 0 0
4:54 am 04:54 Clear 80 26.7 68 20 67 67 S 12 19 29.8 1009 10 16.0934 0 0
5:54 am 05:54 Clear 80 26.7 68 20 67 67 S 13 20 29.8 1009 10 16.0934 0 0
6:54 am 06:54 Sunny 80 26.7 68 20 67 67 S 9 15 29.8 1009 10 16.0934 0 0
7:54 am 07:54 Mostly Sunny 82 27.8 68 20 63 63 SSW 10 17 29.8 1009 10 16.0934 0 0
8:54 am 08:54 Mostly Sunny 84 28.9 69 20.6 61 61 SSW 12 19 29.79 1009 10 16.0934 0 0
9:54 am 09:54 Sunny 88 31.1 70 21.1 55 55 SSW 15 24 29.78 1008 10 16.0934 0 0
10:54 am 10:54 Sunny 91 32.8 70 21.1 50 50 SSW 14 22 29.77 1008 10 16.0934 0 0
11:54 am 11:54 Sunny 93 33.9 71 21.7 49 49 SSW 14 22 29.77 1008 10 16.0934 0 0
12:54 pm 12:54 Sunny 94 34.4 72 22.2 49 49 S 15 24 29.75 1008 10 16.0934 0 0
1:54 pm 13:54 Sunny 97 36.1 73 22.8 46 46 SSW 16 26 29.75 1007 10 16.0934 0 0
2:54 pm 14:54 Sunny 98 36.7 74 23.3 46 46 S 14 22 29.72 1007 10 16.0934 0 0
3:54 pm 15:54 Sunny 100 37.8 71 21.7 39 39 SSW 15 24 29.71 1006 10 16.0934 0 0
4:54 pm 16:54 Sunny 100 37.8 71 21.7 39 39 SSW 12 19 29.7 1006 10 16.0934 0 0
5:54 pm 17:54 Sunny 100 37.8 72 22.2 40 40 SSW 10 17 29.69 1005 10 16.0934 0 0
6:54 pm 18:54 Sunny 96 35.6 74 23.3 49 49 S 9 15 29.67 1005 10 16.0934 0 0
7:54 pm 19:54 Sunny 94 34.4 76 24.4 56 56 S 5 7 29.67 1005 10 16.0934 0 0
8:54 pm 20:54 Clear 93 33.9 73 22.8 52 52 SSW 3 6 29.68 1005 10 16.0934 0 0
9:54 pm 21:54 Clear 88 31.1 73 22.8 61 61 SSW 8 13 29.69 1005 10 16.0934 0 0
10:54 pm 22:54 Clear 88 31.1 70 21.1 55 55 SSW 6 9 29.68 1005 10 16.0934 0 0
11:54 pm 23:54 Clear 84 28.9 70 21.1 63 63 S 15 24 29.68 1005 10 16.0934 0 0

Powered by AerisWeather